METAR Data
IDs: Format: Raw Decoded Include TAF

Data at: 0918 UTC 13 Aug 2022

EKEB 130850Z AUTO 12004KT 090V180 9999 NCD 25/16 Q1020